Pickering, Louisiana
Current Conditions -  °F | °C
As of 10:58 PM on Friday 21 Nov 2014 (Local Time) from KPOE Reporting Station
Overcast Overcast  
Wind Chill: 60°   Ceiling: 9500
Heat Index: 60°   Visibility: 10mi
Dew Point: 52°   Wind: 9mph
Humidity: 74%   Direction: 130°SE
Pressure: 30.22"   Gusts: NA
Location:  31.2063°N, 93.1344°W
Report Text: KPOE 220458Z AUTO 13008KT 10SM OVC095 16/11 A3022 RMK AO2 SLP234 T01550109
Loading
Personal Weather Stations






























Interactive Weather Map New forecast layout! Learn more

10-Day Weather Forecast

Advertisements
Track Severe Weather on mobile